Time;durP1;ratioP1;P1;durP2;ratioP2;P2;SDS_P1;SDS_P2;PMS_P1;PMS_P2;Temp;Humidity;BMP_temperature;BMP_pressure;BME280_temperature;BME280_humidity;BME280_pressure;Samples;Min_cycle;Max_cycle;Signal;HPM_P1;HPM_P2
2021/08/01 00:00:51;;;;;;;11.67;7.53;;;16.50;99.90;;;;;;5017945;28;20181;-82
2021/08/01 00:03:17;;;;;;;7.80;6.53;;;16.40;99.90;;;;;;5018698;28;20170;-82
2021/08/01 00:05:44;;;;;;;8.17;6.37;;;16.50;99.90;;;;;;5017228;28;20253;-82
2021/08/01 00:08:09;;;;;;;9.67;6.13;;;16.50;99.90;;;;;;5018985;28;20177;-82
2021/08/01 00:10:35;;;;;;;7.67;6.80;;;16.50;99.90;;;;;;5017239;28;20174;-82
2021/08/01 00:13:01;;;;;;;8.23;6.60;;;16.50;99.90;;;;;;5017909;28;20551;-82
2021/08/01 00:15:27;;;;;;;8.80;6.73;;;16.50;99.90;;;;;;5017632;28;20721;-82
2021/08/01 00:17:53;;;;;;;9.00;7.20;;;16.50;99.90;;;;;;5019237;28;20194;-82
2021/08/01 00:20:18;;;;;;;9.20;7.53;;;16.50;99.90;;;;;;5018744;28;20274;-82
2021/08/01 00:22:44;;;;;;;8.00;7.20;;;16.50;99.90;;;;;;5018637;28;20178;-82
2021/08/01 00:25:11;;;;;;;7.97;6.80;;;16.60;99.90;;;;;;5021544;28;20716;-82
2021/08/01 00:27:37;;;;;;;9.70;6.80;;;16.50;99.90;;;;;;5033523;28;20183;-81
2021/08/01 00:30:05;;;;;;;9.07;7.50;;;16.50;99.90;;;;;;5031453;28;20589;-82
2021/08/01 00:32:31;;;;;;;10.33;6.87;;;16.60;99.90;;;;;;5019774;28;20246;-83
2021/08/01 00:34:57;;;;;;;8.83;7.13;;;16.60;99.90;;;;;;5020596;28;20699;-82
2021/08/01 00:37:23;;;;;;;9.47;6.23;;;16.60;99.90;;;;;;5021831;28;20178;-83
2021/08/01 00:39:50;;;;;;;9.57;7.47;;;16.50;99.90;;;;;;5021920;28;20175;-83
2021/08/01 00:42:17;;;;;;;7.87;6.33;;;16.50;99.90;;;;;;5022737;28;20209;-83
2021/08/01 00:44:42;;;;;;;7.50;6.63;;;16.40;99.90;;;;;;5022581;28;20214;-83
2021/08/01 00:47:10;;;;;;;10.80;6.60;;;16.40;99.90;;;;;;5019813;28;20186;-83
2021/08/01 00:49:35;;;;;;;8.10;6.93;;;16.40;99.90;;;;;;5018687;28;20328;-82
2021/08/01 00:52:03;;;;;;;7.47;6.67;;;16.40;99.90;;;;;;5017979;28;20214;-82
2021/08/01 00:54:31;;;;;;;7.17;6.30;;;16.40;99.90;;;;;;5018758;28;20194;-82
2021/08/01 00:56:57;;;;;;;7.33;6.13;;;16.30;99.90;;;;;;5017249;28;20178;-82
2021/08/01 00:59:23;;;;;;;8.67;5.97;;;16.30;99.90;;;;;;5019628;28;20266;-82
2021/08/01 01:02:05;;;;;;;6.90;5.90;;;16.20;99.90;;;;;;5018080;28;20187;-82
2021/08/01 01:04:48;;;;;;;9.33;6.43;;;16.20;99.90;;;;;;5018582;28;20588;-82
2021/08/01 01:07:21;;;;;;;8.47;6.67;;;16.20;99.90;;;;;;5018151;28;20179;-82
2021/08/01 01:10:33;;;;;;;8.93;5.83;;;16.20;99.90;;;;;;5017890;28;20183;-82
2021/08/01 01:13:10;;;;;;;8.70;4.50;;;16.10;99.90;;;;;;4996105;28;20187;-82
2021/08/01 01:15:44;;;;;;;6.43;4.03;;;16.00;99.90;;;;;;5019799;28;20212;-82
2021/08/01 01:18:14;;;;;;;9.90;4.13;;;15.70;99.90;;;;;;5018518;28;20175;-82
2021/08/01 01:20:55;;;;;;;6.07;4.10;;;15.40;99.90;;;;;;5018642;28;20236;-82
2021/08/01 01:23:53;;;;;;;5.43;4.13;;;15.30;99.90;;;;;;5018578;28;20540;-82
2021/08/01 01:26:29;;;;;;;4.63;4.23;;;15.20;99.90;;;;;;5019445;28;20644;-82
2021/08/01 01:29:14;;;;;;;11.17;4.57;;;15.10;99.90;;;;;;5020485;28;20187;-83
2021/08/01 01:31:48;;;;;;;6.03;3.90;;;15.10;99.90;;;;;;5020358;28;20532;-82
2021/08/01 01:34:43;;;;;;;5.20;4.10;;;15.10;99.90;;;;;;5017680;28;20203;-82
2021/08/01 01:37:11;;;;;;;7.57;3.67;;;15.00;99.90;;;;;;5017286;28;20186;-82
2021/08/01 01:39:41;;;;;;;5.57;4.13;;;14.90;99.90;;;;;;5018643;28;20182;-82
2021/08/01 01:42:12;;;;;;;7.93;4.40;;;14.80;99.90;;;;;;5017419;28;20533;-82
2021/08/01 01:44:38;;;;;;;6.30;4.33;;;14.70;99.90;;;;;;5018385;28;20703;-82
2021/08/01 01:47:05;;;;;;;7.80;4.03;;;14.60;99.90;;;;;;5019258;28;20179;-83
2021/08/01 01:49:31;;;;;;;7.40;4.97;;;14.40;99.90;;;;;;5017606;28;20268;-82
2021/08/01 01:51:58;;;;;;;5.93;4.60;;;14.40;99.90;;;;;;5018146;28;20666;-83
2021/08/01 01:54:24;;;;;;;6.73;4.50;;;14.30;99.90;;;;;;5017537;28;20198;-83
2021/08/01 01:56:51;;;;;;;8.13;5.40;;;14.30;99.90;;;;;;5018522;28;20179;-83
2021/08/01 01:59:18;;;;;;;8.27;5.43;;;14.30;99.90;;;;;;5017549;28;20179;-83
2021/08/01 02:01:43;;;;;;;10.30;5.47;;;14.30;99.90;;;;;;5017892;28;20187;-83
2021/08/01 02:04:09;;;;;;;6.87;4.97;;;14.20;99.90;;;;;;5019938;28;20278;-83
2021/08/01 02:06:35;;;;;;;6.30;4.77;;;14.10;99.90;;;;;;5021265;28;20179;-84
2021/08/01 02:09:29;;;;;;;5.00;3.83;;;14.10;99.90;;;;;;5022495;28;20175;-82
2021/08/01 02:12:02;;;;;;;4.77;3.27;;;13.90;99.90;;;;;;5020546;28;20181;-83
2021/08/01 02:14:40;;;;;;;3.90;3.50;;;13.70;99.90;;;;;;5019750;28;20266;-83
2021/08/01 02:17:11;;;;;;;4.37;2.83;;;13.60;99.90;;;;;;5021199;28;20227;-83
2021/08/01 02:19:41;;;;;;;4.33;2.73;;;13.60;99.90;;;;;;5019716;28;20178;-83
2021/08/01 02:22:08;;;;;;;5.07;3.23;;;13.60;99.90;;;;;;5020029;28;20210;-83
2021/08/01 02:24:35;;;;;;;3.57;3.27;;;13.60;99.90;;;;;;5018466;28;20286;-83
2021/08/01 02:27:02;;;;;;;4.77;3.63;;;13.60;99.90;;;;;;5019554;28;20716;-83
2021/08/01 02:29:28;;;;;;;3.63;3.23;;;13.70;99.90;;;;;;5020024;28;20168;-83
2021/08/01 02:31:54;;;;;;;3.60;3.30;;;13.70;99.90;;;;;;5019612;28;20190;-83
2021/08/01 02:34:23;;;;;;;6.40;2.87;;;13.70;99.90;;;;;;5019784;28;20199;-84
2021/08/01 02:36:51;;;;;;;2.60;2.40;;;13.70;99.90;;;;;;5019695;28;20171;-83
2021/08/01 02:39:17;;;;;;;3.60;2.87;;;13.70;99.90;;;;;;5019386;28;20625;-83
2021/08/01 02:41:45;;;;;;;2.40;2.00;;;13.70;99.90;;;;;;5016678;28;20256;-84
2021/08/01 02:44:19;;;;;;;4.50;1.80;;;13.70;99.90;;;;;;5015677;28;20213;-84
2021/08/01 02:46:45;;;;;;;3.30;2.60;;;13.70;99.90;;;;;;5019951;28;20171;-84
2021/08/01 02:49:19;;;;;;;3.90;1.93;;;13.60;99.90;;;;;;5018214;28;20206;-83
2021/08/01 02:51:48;;;;;;;7.00;1.90;;;13.60;99.90;;;;;;5019125;28;20620;-83
2021/08/01 02:54:15;;;;;;;3.40;1.70;;;13.60;99.90;;;;;;5020002;28;20203;-83
2021/08/01 02:56:43;;;;;;;2.60;1.50;;;13.70;99.90;;;;;;5018272;28;20210;-83
2021/08/01 02:59:11;;;;;;;2.70;1.50;;;13.70;99.90;;;;;;5019497;28;20201;-83
2021/08/01 03:01:38;;;;;;;1.50;1.27;;;13.60;99.90;;;;;;5019791;28;20538;-83
2021/08/01 03:04:05;;;;;;;2.20;1.30;;;13.60;99.90;;;;;;5018844;28;20229;-83
2021/08/01 03:06:32;;;;;;;1.40;1.30;;;13.60;99.90;;;;;;5020363;28;20262;-83
2021/08/01 03:09:03;;;;;;;2.97;1.77;;;13.60;99.90;;;;;;5020438;28;20182;-83
2021/08/01 03:11:34;;;;;;;1.60;1.50;;;13.50;99.90;;;;;;5022618;28;20182;-83
2021/08/01 03:14:00;;;;;;;2.53;1.80;;;13.50;99.90;;;;;;5022347;28;20610;-83
2021/08/01 03:16:26;;;;;;;1.83;1.50;;;13.30;99.90;;;;;;5027106;28;20183;-82
2021/08/01 03:18:51;;;;;;;2.20;2.00;;;13.30;99.90;;;;;;5035079;28;20258;-82
2021/08/01 03:21:17;;;;;;;2.67;2.13;;;13.40;99.90;;;;;;5032890;28;20210;-83
2021/08/01 03:23:43;;;;;;;2.43;2.13;;;13.30;99.90;;;;;;5018802;28;20195;-82
2021/08/01 03:26:08;;;;;;;2.17;1.97;;;13.30;99.90;;;;;;5017450;28;20240;-82
2021/08/01 03:28:34;;;;;;;2.23;2.00;;;13.30;99.90;;;;;;5017866;28;20203;-82
2021/08/01 03:31:00;;;;;;;3.70;2.20;;;13.30;99.90;;;;;;5019791;28;20182;-82
2021/08/01 03:33:25;;;;;;;4.07;2.67;;;13.30;99.90;;;;;;5018040;28;20183;-82
2021/08/01 03:35:51;;;;;;;3.63;2.30;;;13.30;99.90;;;;;;5016954;28;20217;-82
2021/08/01 03:38:17;;;;;;;3.23;2.80;;;13.40;99.90;;;;;;5016732;28;20179;-82
2021/08/01 03:40:42;;;;;;;4.07;2.70;;;13.30;99.90;;;;;;5017872;28;20175;-82
2021/08/01 03:43:08;;;;;;;3.00;2.53;;;13.40;99.90;;;;;;5018213;28;20175;-82
2021/08/01 03:45:34;;;;;;;4.53;2.80;;;13.40;99.90;;;;;;5016563;28;20218;-83
2021/08/01 03:48:00;;;;;;;4.37;2.50;;;13.40;99.90;;;;;;5017935;28;20183;-83
2021/08/01 03:50:25;;;;;;;2.93;2.40;;;13.40;99.90;;;;;;5017172;28;20660;-83
2021/08/01 03:52:51;;;;;;;3.93;2.67;;;13.50;99.90;;;;;;5016458;28;20261;-83
2021/08/01 03:55:17;;;;;;;3.70;3.00;;;13.40;99.90;;;;;;5018438;28;20600;-83
2021/08/01 03:57:42;;;;;;;3.63;3.17;;;13.40;99.90;;;;;;5016087;28;20179;-83
2021/08/01 04:00:09;;;;;;;4.23;3.00;;;13.40;99.90;;;;;;5016191;28;20175;-83
2021/08/01 04:02:37;;;;;;;3.23;2.83;;;13.40;99.90;;;;;;5016117;28;20179;-83
2021/08/01 04:05:07;;;;;;;5.90;2.90;;;13.40;99.90;;;;;;5017095;28;20594;-83
2021/08/01 04:07:33;;;;;;;4.97;2.67;;;13.30;99.90;;;;;;5015744;28;20740;-83
2021/08/01 04:09:59;;;;;;;2.60;2.40;;;13.40;99.90;;;;;;5015453;28;20179;-83
2021/08/01 04:12:25;;;;;;;2.80;2.60;;;13.40;99.90;;;;;;5017332;28;20640;-83
2021/08/01 04:14:50;;;;;;;3.47;2.40;;;13.40;99.90;;;;;;5017122;28;20286;-83
2021/08/01 04:17:19;;;;;;;3.80;2.60;;;13.40;99.90;;;;;;5015759;28;20182;-83
2021/08/01 04:19:46;;;;;;;2.73;2.53;;;13.30;99.90;;;;;;5015515;28;20611;-83
2021/08/01 04:22:17;;;;;;;2.83;2.27;;;13.40;99.90;;;;;;5016084;28;20189;-83
2021/08/01 04:24:42;;;;;;;2.27;2.07;;;13.30;99.90;;;;;;5015444;28;20195;-83
2021/08/01 04:27:08;;;;;;;2.67;2.37;;;13.40;99.90;;;;;;5016132;28;20697;-83
2021/08/01 04:29:34;;;;;;;2.93;2.30;;;13.40;99.90;;;;;;5016684;28;20175;-83
2021/08/01 04:32:00;;;;;;;2.47;2.00;;;13.40;99.90;;;;;;5015534;28;20645;-83
2021/08/01 04:34:26;;;;;;;2.63;2.17;;;13.40;99.90;;;;;;5015950;28;20205;-83
2021/08/01 04:36:52;;;;;;;3.23;2.10;;;13.30;99.90;;;;;;5015494;28;20214;-83
2021/08/01 04:39:18;;;;;;;5.53;1.83;;;13.30;99.90;;;;;;5016949;28;20239;-83
2021/08/01 04:41:44;;;;;;;3.17;2.33;;;13.30;99.90;;;;;;5017202;28;20205;-83
2021/08/01 04:44:10;;;;;;;2.30;2.10;;;13.30;99.90;;;;;;5015304;28;20241;-83
2021/08/01 04:46:35;;;;;;;2.73;2.20;;;13.40;99.90;;;;;;5017000;28;20167;-83
2021/08/01 04:49:01;;;;;;;3.03;2.27;;;13.40;99.90;;;;;;5016920;28;20521;-83
2021/08/01 04:51:26;;;;;;;3.30;2.10;;;13.40;99.90;;;;;;5017095;28;20179;-83
2021/08/01 04:53:52;;;;;;;3.50;2.40;;;13.40;99.90;;;;;;5015485;28;20269;-83
2021/08/01 04:56:18;;;;;;;2.43;2.20;;;13.40;99.90;;;;;;5015890;28;20237;-83
2021/08/01 04:58:43;;;;;;;3.07;2.10;;;13.40;99.90;;;;;;5017984;28;20198;-83
2021/08/01 05:01:13;;;;;;;3.97;2.30;;;13.50;99.90;;;;;;5015205;28;20548;-83
2021/08/01 05:03:39;;;;;;;2.40;2.20;;;13.50;99.90;;;;;;5016975;28;20159;-83
2021/08/01 05:06:05;;;;;;;2.80;2.33;;;13.40;99.90;;;;;;5015270;28;20733;-83
2021/08/01 05:08:31;;;;;;;2.20;2.00;;;13.40;99.90;;;;;;5016284;28;20182;-83
2021/08/01 05:10:57;;;;;;;4.30;2.30;;;13.30;99.90;;;;;;5016204;28;20186;-83
2021/08/01 05:13:22;;;;;;;3.13;2.30;;;13.20;99.90;;;;;;5016278;28;20186;-82
2021/08/01 05:15:48;;;;;;;2.50;2.30;;;13.30;99.90;;;;;;5014915;28;20261;-83
2021/08/01 05:18:14;;;;;;;2.50;2.30;;;13.30;99.90;;;;;;5015022;28;20653;-82
2021/08/01 05:20:44;;;;;;;4.90;2.57;;;13.40;99.90;;;;;;5015849;28;20182;-83
2021/08/01 05:23:10;;;;;;;2.73;2.33;;;13.40;99.90;;;;;;5016049;28;20175;-82
2021/08/01 05:25:36;;;;;;;2.40;2.20;;;13.40;99.90;;;;;;5016417;28;20228;-82
2021/08/01 05:28:02;;;;;;;3.30;2.33;;;13.50;99.90;;;;;;5016025;28;20539;-82
2021/08/01 05:30:28;;;;;;;3.90;2.70;;;13.50;99.90;;;;;;5015444;28;20210;-83
2021/08/01 05:32:53;;;;;;;3.27;2.20;;;13.50;99.90;;;;;;5017051;28;20182;-82
2021/08/01 05:35:19;;;;;;;2.50;2.30;;;13.50;99.90;;;;;;5017323;28;20211;-83
2021/08/01 05:37:45;;;;;;;3.37;2.10;;;13.50;99.90;;;;;;5016911;28;20175;-83
2021/08/01 05:40:11;;;;;;;3.10;2.50;;;13.60;99.90;;;;;;5015330;28;20179;-83
2021/08/01 05:42:40;;;;;;;3.13;2.37;;;13.60;99.90;;;;;;5018346;28;20544;-83
2021/08/01 05:45:07;;;;;;;2.40;2.00;;;13.60;99.90;;;;;;5020712;28;20249;-83
2021/08/01 05:47:37;;;;;;;2.37;2.17;;;13.60;99.90;;;;;;5020428;28;20174;-83
2021/08/01 05:50:04;;;;;;;2.40;2.00;;;13.60;99.90;;;;;;5020752;28;20170;-84
2021/08/01 05:52:30;;;;;;;3.40;2.33;;;13.60;99.90;;;;;;5020570;28;20258;-83
2021/08/01 05:54:56;;;;;;;2.53;2.00;;;13.60;99.90;;;;;;5019415;28;20214;-83
2021/08/01 05:57:21;;;;;;;2.27;1.87;;;13.60;99.90;;;;;;5019530;28;20183;-83
2021/08/01 05:59:47;;;;;;;2.00;1.80;;;13.60;99.90;;;;;;5019285;28;20249;-83
2021/08/01 06:02:13;;;;;;;2.13;1.60;;;13.60;99.90;;;;;;5019933;28;20210;-83
2021/08/01 06:04:39;;;;;;;3.40;1.77;;;13.70;99.90;;;;;;5019242;28;20205;-83
2021/08/01 06:07:06;;;;;;;5.10;2.40;;;13.70;99.90;;;;;;5020827;28;20641;-83
2021/08/01 06:09:32;;;;;;;2.27;1.83;;;13.70;99.90;;;;;;5019663;28;20179;-83
2021/08/01 06:11:57;;;;;;;2.03;1.87;;;13.70;99.90;;;;;;5021330;28;20272;-83
2021/08/01 06:14:23;;;;;;;3.70;1.60;;;13.70;99.90;;;;;;5022014;28;20768;-84
2021/08/01 06:16:49;;;;;;;2.50;2.10;;;13.70;99.90;;;;;;5034131;28;20237;-83
2021/08/01 06:19:14;;;;;;;3.00;2.30;;;13.80;99.90;;;;;;5033503;28;20182;-83
2021/08/01 06:21:40;;;;;;;2.67;1.80;;;13.80;99.90;;;;;;5024617;28;20178;-83
2021/08/01 06:24:06;;;;;;;2.13;1.80;;;13.80;99.90;;;;;;5018515;28;20273;-83
2021/08/01 06:26:31;;;;;;;1.93;1.73;;;13.80;99.90;;;;;;5017372;28;20183;-83
2021/08/01 06:28:57;;;;;;;2.50;2.30;;;13.80;99.90;;;;;;5018773;28;20175;-83
2021/08/01 06:31:23;;;;;;;4.03;2.33;;;13.70;99.90;;;;;;5020045;28;20189;-83
2021/08/01 06:33:48;;;;;;;3.27;2.10;;;13.70;99.90;;;;;;5017173;28;20682;-83
2021/08/01 06:36:15;;;;;;;2.40;2.20;;;13.70;99.90;;;;;;5017316;28;20222;-83
2021/08/01 06:38:43;;;;;;;2.60;2.10;;;13.70;99.90;;;;;;5017309;28;20179;-84
2021/08/01 06:41:09;;;;;;;2.77;2.50;;;13.60;99.90;;;;;;5018845;28;20175;-84
2021/08/01 06:43:35;;;;;;;2.67;2.17;;;13.50;99.90;;;;;;5017353;28;20190;-84
2021/08/01 06:46:01;;;;;;;2.73;2.43;;;13.40;99.90;;;;;;5018615;28;20219;-84
2021/08/01 06:48:27;;;;;;;5.23;2.40;;;13.50;99.90;;;;;;5018764;28;20536;-84
2021/08/01 06:50:53;;;;;;;2.30;2.10;;;13.50;99.90;;;;;;5018746;28;20183;-84
2021/08/01 06:53:19;;;;;;;5.30;2.27;;;13.50;99.90;;;;;;5016585;28;20665;-84
2021/08/01 06:55:45;;;;;;;2.40;2.13;;;13.60;99.90;;;;;;5017499;28;20218;-83
2021/08/01 06:58:11;;;;;;;3.07;2.30;;;13.50;99.90;;;;;;5017302;28;20321;-84
2021/08/01 07:00:37;;;;;;;2.83;2.40;;;13.50;99.90;;;;;;5017510;28;20175;-83
2021/08/01 07:03:03;;;;;;;3.43;2.10;;;13.50;99.90;;;;;;5019094;28;20205;-83
2021/08/01 07:05:30;;;;;;;3.67;2.17;;;13.50;99.90;;;;;;5018718;28;20201;-83
2021/08/01 07:07:56;;;;;;;2.10;1.90;;;13.60;99.90;;;;;;5019222;28;20654;-83
2021/08/01 07:10:23;;;;;;;4.20;1.93;;;13.60;99.90;;;;;;5019706;28;20183;-84
2021/08/01 07:12:49;;;;;;;2.27;1.87;;;13.70;99.90;;;;;;5021151;28;20179;-83
2021/08/01 07:15:22;;;;;;;2.20;2.00;;;13.70;99.90;;;;;;5019170;28;20211;-83
2021/08/01 07:17:47;;;;;;;2.30;2.00;;;13.70;99.90;;;;;;5019626;28;20179;-83
2021/08/01 07:20:13;;;;;;;2.13;1.93;;;13.80;99.90;;;;;;5021360;28;20174;-83
2021/08/01 07:22:40;;;;;;;2.40;2.20;;;13.80;99.90;;;;;;5020348;28;20660;-83
2021/08/01 07:25:08;;;;;;;2.33;2.00;;;13.80;99.90;;;;;;5019877;28;20341;-83
2021/08/01 07:27:34;;;;;;;2.20;1.60;;;13.80;99.90;;;;;;5021059;28;20665;-83
2021/08/01 07:30:00;;;;;;;3.33;1.70;;;13.80;99.90;;;;;;5019327;28;20190;-83
2021/08/01 07:32:26;;;;;;;3.23;1.60;;;13.80;99.90;;;;;;5020988;28;20687;-83
2021/08/01 07:34:52;;;;;;;2.40;2.20;;;13.80;99.90;;;;;;5019388;28;20197;-82
2021/08/01 07:37:18;;;;;;;2.70;2.07;;;13.80;99.90;;;;;;5017398;28;20583;-83
2021/08/01 07:39:44;;;;;;;3.10;2.10;;;13.80;99.90;;;;;;5018039;28;20229;-83
2021/08/01 07:42:11;;;;;;;2.33;2.13;;;13.70;99.90;;;;;;5019157;28;20199;-83
2021/08/01 07:44:51;;;;;;;2.10;1.90;;;13.80;99.90;;;;;;5017554;28;20564;-83
2021/08/01 07:47:24;;;;;;;2.20;1.70;;;13.80;99.90;;;;;;5019000;28;20166;-83
2021/08/01 07:49:51;;;;;;;2.73;2.07;;;13.80;99.90;;;;;;5018116;28;20163;-82
2021/08/01 07:52:18;;;;;;;2.50;2.10;;;13.80;99.90;;;;;;5019964;28;20171;-83
2021/08/01 07:54:44;;;;;;;2.33;2.13;;;13.80;99.90;;;;;;5018552;28;20199;-83
2021/08/01 07:57:27;;;;;;;3.17;2.17;;;13.90;99.90;;;;;;5018862;28;20181;-83
2021/08/01 07:59:54;;;;;;;2.40;2.03;;;13.90;99.90;;;;;;5019724;28;20518;-83
2021/08/01 08:02:20;;;;;;;3.07;1.70;;;13.90;99.90;;;;;;5018221;28;20177;-83
2021/08/01 08:04:47;;;;;;;1.83;1.73;;;13.80;99.90;;;;;;5018113;28;20191;-83
2021/08/01 08:07:12;;;;;;;2.23;2.03;;;13.80;99.90;;;;;;5018314;28;20175;-83
2021/08/01 08:09:38;;;;;;;1.93;1.63;;;13.80;99.90;;;;;;5018158;28;20178;-82
2021/08/01 08:12:04;;;;;;;2.77;2.20;;;13.70;99.90;;;;;;5015516;28;20171;-82
2021/08/01 08:14:30;;;;;;;2.27;2.00;;;13.80;99.90;;;;;;5013925;28;20223;-83
2021/08/01 08:16:56;;;;;;;2.00;1.90;;;13.80;99.90;;;;;;5017574;28;20221;-83
2021/08/01 08:19:22;;;;;;;1.67;1.57;;;13.80;99.90;;;;;;5017355;28;20183;-83
2021/08/01 08:21:48;;;;;;;1.57;1.47;;;13.80;99.90;;;;;;5017989;28;20262;-83
2021/08/01 08:24:14;;;;;;;2.17;1.87;;;13.80;99.90;;;;;;5019373;28;20204;-83
2021/08/01 08:26:39;;;;;;;4.23;2.20;;;13.80;99.90;;;;;;5018981;28;20194;-83
2021/08/01 08:29:05;;;;;;;2.77;2.10;;;13.80;99.90;;;;;;5020123;28;20182;-83
2021/08/01 08:31:31;;;;;;;2.30;2.10;;;13.80;99.90;;;;;;5019258;28;20175;-83
2021/08/01 08:33:57;;;;;;;2.20;1.63;;;13.90;99.90;;;;;;5017653;28;20183;-83
2021/08/01 08:36:23;;;;;;;2.07;1.80;;;13.90;99.90;;;;;;5018896;28;20213;-83
2021/08/01 08:38:48;;;;;;;2.23;1.80;;;13.80;99.90;;;;;;5018983;28;20220;-83
2021/08/01 08:41:16;;;;;;;2.17;1.90;;;13.80;99.90;;;;;;5019079;28;20178;-83
2021/08/01 08:43:43;;;;;;;1.93;1.47;;;13.80;99.90;;;;;;5020309;28;20178;-84
2021/08/01 08:46:10;;;;;;;2.07;1.87;;;13.80;99.90;;;;;;5019943;28;20214;-83
2021/08/01 08:48:38;;;;;;;3.53;2.10;;;13.90;99.90;;;;;;5018066;28;20269;-83
2021/08/01 08:51:09;;;;;;;4.47;2.20;;;13.90;99.90;;;;;;5019996;28;20588;-84
2021/08/01 08:53:39;;;;;;;3.30;2.33;;;13.90;99.90;;;;;;5019821;28;20183;-82
2021/08/01 08:56:06;;;;;;;3.47;2.57;;;13.90;99.90;;;;;;5018388;28;20238;-84
2021/08/01 08:58:33;;;;;;;3.10;2.47;;;13.90;99.90;;;;;;5017969;28;20185;-84
2021/08/01 09:00:58;;;;;;;5.17;2.00;;;13.90;99.90;;;;;;5018554;28;20175;-84
2021/08/01 09:03:25;;;;;;;2.17;1.97;;;13.80;99.90;;;;;;5018739;28;20182;-83
2021/08/01 09:05:55;;;;;;;1.77;1.33;;;13.80;99.90;;;;;;5019109;28;20222;-83
2021/08/01 09:08:21;;;;;;;2.33;1.70;;;13.80;99.90;;;;;;5021404;28;20185;-83
2021/08/01 09:10:47;;;;;;;1.50;1.40;;;13.80;99.90;;;;;;5020077;28;20182;-82
2021/08/01 09:13:12;;;;;;;2.53;1.63;;;13.90;99.90;;;;;;5021981;28;20186;-82
2021/08/01 09:15:38;;;;;;;1.87;1.50;;;13.90;99.90;;;;;;5021183;28;20206;-82
2021/08/01 09:18:11;;;;;;;1.63;1.53;;;14.00;99.90;;;;;;5018912;28;20254;-82
2021/08/01 09:20:53;;;;;;;2.30;1.70;;;14.00;99.90;;;;;;5016813;28;20151;-82
2021/08/01 09:23:19;;;;;;;1.90;1.73;;;14.10;99.90;;;;;;5015708;28;20187;-82
2021/08/01 09:25:55;;;;;;;1.97;1.40;;;14.10;99.90;;;;;;5015549;28;20217;-83
2021/08/01 09:28:24;;;;;;;2.07;1.70;;;14.20;99.90;;;;;;5015148;28;20193;-83
2021/08/01 09:30:58;;;;;;;1.60;1.50;;;14.20;99.90;;;;;;5015116;28;20189;-83
2021/08/01 09:33:35;;;;;;;2.10;1.90;;;14.30;99.90;;;;;;5016951;28;20171;-83
2021/08/01 09:36:16;;;;;;;1.97;1.57;;;14.40;99.90;;;;;;5014870;28;20210;-83
2021/08/01 09:39:04;;;;;;;2.00;1.50;;;14.40;99.90;;;;;;5016705;28;20167;-83
2021/08/01 09:41:33;;;;;;;1.57;1.40;;;14.50;99.90;;;;;;5015321;28;20189;-84
2021/08/01 09:44:01;;;;;;;2.03;1.53;;;14.50;99.90;;;;;;5015162;28;20262;-84
2021/08/01 09:46:44;;;;;;;1.97;1.50;;;14.60;99.90;;;;;;5017940;28;20175;-83
2021/08/01 09:49:20;;;;;;;2.07;1.80;;;14.60;99.90;;;;;;5018738;28;20163;-83
2021/08/01 09:51:48;;;;;;;1.93;1.80;;;14.70;99.90;;;;;;5017595;28;20175;-83
2021/08/01 09:54:16;;;;;;;1.30;1.20;;;14.80;99.90;;;;;;5019041;28;20226;-83
2021/08/01 09:57:01;;;;;;;1.40;1.13;;;14.90;99.90;;;;;;5016910;28;20203;-83
2021/08/01 09:59:28;;;;;;;1.83;1.70;;;15.00;99.90;;;;;;5018047;28;20269;-84
2021/08/01 10:01:57;;;;;;;2.80;2.23;;;15.00;99.90;;;;;;5016384;28;20242;-83
2021/08/01 10:04:40;;;;;;;3.33;2.27;;;15.10;99.90;;;;;;5014485;28;20673;-83
2021/08/01 10:07:09;;;;;;;3.07;2.30;;;15.20;99.90;;;;;;5015513;28;20182;-83
2021/08/01 10:09:36;;;;;;;2.93;2.13;;;15.30;99.90;;;;;;5015914;28;20208;-83
2021/08/01 10:12:03;;;;;;;3.03;2.73;;;15.40;99.90;;;;;;5016160;28;20284;-83
2021/08/01 10:14:29;;;;;;;2.63;2.43;;;15.50;99.90;;;;;;5017260;28;20190;-83
2021/08/01 10:16:56;;;;;;;22.80;11.93;;;15.50;99.90;;;;;;5015423;28;20194;-83
2021/08/01 10:19:22;;;;;;;10.30;7.80;;;15.60;99.90;;;;;;5016740;28;20171;-83
2021/08/01 10:21:49;;;;;;;5.77;3.50;;;15.50;99.90;;;;;;5015942;28;20253;-83
2021/08/01 10:24:19;;;;;;;3.30;3.00;;;15.50;99.90;;;;;;5013576;28;20273;-83
2021/08/01 10:26:59;;;;;;;3.53;2.67;;;15.50;99.90;;;;;;5015375;28;20265;-82
2021/08/01 10:29:46;;;;;;;3.27;2.87;;;15.70;99.90;;;;;;5017609;28;20170;-83
2021/08/01 10:32:13;;;;;;;3.13;2.27;;;15.80;99.90;;;;;;5019845;28;20150;-83
2021/08/01 10:34:53;;;;;;;3.67;2.40;;;15.80;99.90;;;;;;5017856;28;20564;-83
2021/08/01 10:37:30;;;;;;;11.20;6.20;;;15.90;99.90;;;;;;5019367;28;20174;-83
2021/08/01 10:39:57;;;;;;;3.63;2.90;;;15.80;99.90;;;;;;5019834;28;20267;-83
2021/08/01 10:42:28;;;;;;;2.50;1.97;;;15.80;99.90;;;;;;5019396;28;20660;-83
2021/08/01 10:44:57;;;;;;;2.60;2.17;;;15.80;99.90;;;;;;5018793;28;20213;-83
2021/08/01 10:47:23;;;;;;;3.97;1.63;;;15.80;99.90;;;;;;5021037;28;20179;-83
2021/08/01 10:49:49;;;;;;;2.20;1.90;;;15.90;99.90;;;;;;5019805;28;20176;-82
2021/08/01 10:52:17;;;;;;;2.43;1.80;;;15.80;99.90;;;;;;5016973;28;20189;-83
2021/08/01 10:54:56;;;;;;;2.93;1.63;;;15.90;99.90;;;;;;5017201;28;20195;-82
2021/08/01 10:57:23;;;;;;;1.60;1.40;;;15.80;99.90;;;;;;5020007;28;20175;-82
2021/08/01 10:59:49;;;;;;;2.03;1.20;;;15.80;99.90;;;;;;5019593;28;20170;-82
2021/08/01 11:02:22;;;;;;;4.47;1.57;;;15.80;99.90;;;;;;5019436;28;20594;-83
2021/08/01 11:04:50;;;;;;;1.67;1.30;;;15.80;99.90;;;;;;5017123;28;20672;-82
2021/08/01 11:07:28;;;;;;;2.03;1.40;;;15.80;99.90;;;;;;5017971;28;20175;-83
2021/08/01 11:10:16;;;;;;;2.10;1.40;;;15.80;99.90;;;;;;5019295;28;20179;-82
2021/08/01 11:12:43;;;;;;;2.33;1.27;;;15.80;99.90;;;;;;5018994;28;20155;-83
2021/08/01 11:15:11;;;;;;;1.90;1.40;;;15.70;99.90;;;;;;5018613;28;20297;-83
2021/08/01 11:17:46;;;;;;;2.90;1.70;;;15.70;99.90;;;;;;5016605;28;20186;-81
2021/08/01 11:20:21;;;;;;;2.70;1.70;;;15.70;99.90;;;;;;5017140;28;20179;-81
2021/08/01 11:22:47;;;;;;;4.30;2.70;;;15.70;99.90;;;;;;5018685;28;20659;-82
2021/08/01 11:25:36;;;;;;;4.40;2.10;;;15.70;99.90;;;;;;5017133;28;20199;-82
2021/08/01 11:28:11;;;;;;;3.07;1.70;;;15.70;99.90;;;;;;5017678;28;20212;-82
2021/08/01 11:31:00;;;;;;;2.70;2.40;;;15.80;99.90;;;;;;5016907;28;20551;-82
2021/08/01 11:33:43;;;;;;;2.83;1.90;;;15.80;99.90;;;;;;5016682;28;20653;-82
2021/08/01 11:36:15;;;;;;;1.90;1.40;;;15.80;99.90;;;;;;5018737;28;20747;-81
2021/08/01 11:38:53;;;;;;;2.10;1.43;;;15.80;99.90;;;;;;5017574;28;20195;-82
2021/08/01 11:44:16;;;;;;;2.77;1.50;;;15.60;99.90;;;;;;5020431;28;20245;-83
2021/08/01 11:47:04;;;;;;;1.90;1.27;;;15.60;99.90;;;;;;5019174;28;20179;-82
2021/08/01 11:49:31;;;;;;;2.90;1.47;;;15.60;99.90;;;;;;5020832;28;20161;-82
2021/08/01 11:51:59;;;;;;;1.77;1.60;;;15.60;99.90;;;;;;5018267;28;20182;-82
2021/08/01 11:54:32;;;;;;;5.43;1.70;;;15.60;99.90;;;;;;5018129;28;20258;-82
2021/08/01 11:57:04;;;;;;;2.13;1.70;;;15.60;99.90;;;;;;5019326;28;20549;-82
2021/08/01 11:59:31;;;;;;;1.60;1.50;;;15.70;99.90;;;;;;5020771;28;20193;-83
2021/08/01 12:01:58;;;;;;;1.80;1.60;;;15.70;99.90;;;;;;5023397;28;20242;-82
2021/08/01 12:04:25;;;;;;;1.50;1.40;;;15.80;99.90;;;;;;5030904;28;20230;-81
2021/08/01 12:06:52;;;;;;;2.27;1.30;;;15.90;99.90;;;;;;5027761;28;20247;-82
2021/08/01 12:09:30;;;;;;;1.60;1.47;;;15.90;99.90;;;;;;5016784;28;20239;-81
2021/08/01 12:12:03;;;;;;;2.47;1.80;;;15.90;99.90;;;;;;5017416;28;20186;-81
2021/08/01 12:14:31;;;;;;;1.93;1.73;;;16.00;99.90;;;;;;5017268;28;20222;-81
2021/08/01 12:16:59;;;;;;;4.13;1.70;;;16.20;99.90;;;;;;5017611;28;20210;-81
2021/08/01 12:19:29;;;;;;;3.07;1.37;;;16.20;99.90;;;;;;5017635;28;20179;-81
2021/08/01 12:22:00;;;;;;;2.50;1.70;;;16.30;99.90;;;;;;5019273;28;20167;-82
2021/08/01 12:24:34;;;;;;;1.53;1.43;;;16.40;99.90;;;;;;5017425;28;20203;-82
2021/08/01 12:27:00;;;;;;;2.13;1.80;;;16.50;99.90;;;;;;5017795;28;20175;-82
2021/08/01 12:29:29;;;;;;;3.07;1.80;;;16.50;99.90;;;;;;5017720;28;20557;-82
2021/08/01 12:31:56;;;;;;;2.00;1.63;;;16.50;99.90;;;;;;5016868;28;20194;-82
2021/08/01 12:34:22;;;;;;;2.17;1.83;;;16.50;99.90;;;;;;5016268;28;20191;-82
2021/08/01 12:36:49;;;;;;;1.90;1.70;;;16.50;99.90;;;;;;5016076;28;20206;-82
2021/08/01 12:39:18;;;;;;;1.87;1.47;;;16.40;99.90;;;;;;5014408;28;20232;-82
2021/08/01 12:41:59;;;;;;;2.57;1.40;;;16.30;99.90;;;;;;5014438;28;20201;-82
2021/08/01 12:44:25;;;;;;;1.43;1.30;;;16.20;99.90;;;;;;5020967;28;20218;-83
2021/08/01 12:47:05;;;;;;;1.80;1.60;;;16.20;99.90;;;;;;5024779;28;20272;-83
2021/08/01 12:49:31;;;;;;;2.80;1.80;;;16.20;99.90;;;;;;5022525;28;20189;-83
2021/08/01 12:51:57;;;;;;;3.43;1.70;;;16.10;99.90;;;;;;5019983;28;20638;-83
2021/08/01 12:54:22;;;;;;;1.50;1.40;;;16.20;99.90;;;;;;5021575;28;20291;-83
2021/08/01 12:57:08;;;;;;;1.57;1.40;;;16.20;99.90;;;;;;5019595;28;20208;-83